Bedford Village, New York
Current Conditions -  °F | °C
As of 12:56 PM on Thursday 18 Dec 2014 (Local Time) from KHPN Reporting Station
Broken Clouds Broken Clouds  
Wind Chill: 30°   Ceiling: 3500
Heat Index: 39°   Visibility: 10mi
Dew Point: 24°   Wind: 18mph
Humidity: 55%   Direction: 300°WNW
Pressure: 29.9"   Gusts: 24mph
Location:  41.191°N, 73.6333°W
Report Text: KHPN 181756Z 30016G21KT 10SM BKN035 04/M04 A2990 RMK AO2 SLP132 T00391044 10044 20022 58012
Loading
Personal Weather Stations






























Interactive Weather Map New forecast layout! Learn more

10-Day Weather Forecast

Advertisements
Track Severe Weather on mobile